Airfield :
LOGIN :

Register | Disclaimer

   EN    FR    IT 

 










Legend :    VFR   Marginal VFR   IFR   Intensive IFR   Very Intensive IFR
Visi :
Ceiling :
>= 8 km
>= 3000ft
5 to 8 km
1000 to 3000 ft
1500m to 5 km
500 to 1000 ft
800 to 1500m
200 to 500 ft
< 800m
< 200 ft
Symbols :   Thunderstorms  Fog  Heavy snow  Heavy precipitations  Wind > 20 kt
SIGMETs :     Misc.  Thunderstorms  Icing  Turbulence  Mountain Waves  Volcanic Ashes






- Airport Elevation : 16 ft
- IATA code : SDR


LEXJ - Santander Cantabria

CURRENT METAR :
  • 152000Z 22008KT 190V260 8000 -RA SCT030 BKN036 BKN050 05/04 Q1008

EXPIRED METARs :
  • 151930Z 23009KT 8000 -RA SCT034 BKN043 BKN055 05/04 Q1008
  • 151900Z 23008KT 8000 -RA FEW029 BKN037 BKN043 05/04 Q1008 RERA
  • 151845Z 23008KT 7000 -RA FEW025 BKN035 BKN043 05/04 Q1008 RERA
  • 151830Z 23009KT 200V260 6000 RA FEW025 BKN032 BKN043 06/05 Q1007
  • 151800Z 23007KT 7000 RA FEW025 SCT029 OVC034 06/05 Q1007
  • 151739Z 24004KT 200V300 5000 RA SCT025 SCT033 BKN045 06/05 Q1007
  • 151730Z 23006KT 190V250 8000 -RA SCT025 SCT033 BKN045 06/05 Q1006

TAF TAF LEXJ
Valid from the 15 at 15:00 until the 16 at 15:00 UTC


151400Z 1515/1615 24009KT 9999 SCT020 BKN035 TX13/1614Z TN07/1606Z
TEMPO 1515/1524 3000 RA SHRA BKN012 BKN025TCU
PROB40
TEMPO 1515/1523 SHRAGR TSRA SCT025CB
TEMPO 1521/1606 3000 -RA BR BKN014



MET'MAP, your aeronautical weather chart ! - Copyright ORBIFLY December 2007 - Disclaimer

ORBIFLY MET'MAP TEAM :

Programming & Development : Alexandra Zaïnal
Concept & Development : Baudouin d'Aumeries
Co-Development & Prog : Marc-Olivier Méhu
Technical & hardware support : Manuel Goepfert

Contact : metmap@orbifly.com




SOURCES & CREDITS :

   NOAA